Time;durP1;ratioP1;P1;durP2;ratioP2;P2;SDS_P1;SDS_P2;PMS_P1;PMS_P2;Temp;Humidity;BMP_temperature;BMP_pressure;BME280_temperature;BME280_humidity;BME280_pressure;Samples;Min_cycle;Max_cycle;Signal;HPM_P1;HPM_P2
2022/05/28 00:00:08;;;;;;;0.83;0.73;;;;;;;10.78;76.73;100468.88;5071485;28;20245;-72
2022/05/28 00:02:33;;;;;;;1.63;0.47;;;;;;;10.78;77.12;100462.63;5071816;28;20177;-72
2022/05/28 00:04:58;;;;;;;3.20;0.77;;;;;;;10.77;76.68;100461.00;5071574;28;20874;-73
2022/05/28 00:07:24;;;;;;;1.77;1.33;;;;;;;10.77;77.14;100459.06;5071385;28;20166;-73
2022/05/28 00:09:49;;;;;;;0.50;0.37;;;;;;;10.75;76.88;100457.78;5071311;28;20621;-72
2022/05/28 00:12:15;;;;;;;0.00;0.00;;;;;;;10.72;77.58;100457.28;5071362;28;20597;-73
2022/05/28 00:14:40;;;;;;;0.17;0.17;;;;;;;10.71;77.27;100446.69;5071321;28;20258;-72
2022/05/28 00:17:06;;;;;;;0.63;0.10;;;;;;;10.69;77.77;100441.50;5071293;28;20166;-73
2022/05/28 00:19:31;;;;;;;4.00;0.50;;;;;;;10.71;77.94;100438.47;5071213;28;20564;-72
2022/05/28 00:21:56;;;;;;;0.43;0.33;;;;;;;10.70;77.59;100440.41;5070776;28;20167;-73
2022/05/28 00:24:22;;;;;;;2.70;0.93;;;;;;;10.70;77.88;100437.69;5071060;28;20223;-72
2022/05/28 00:26:47;;;;;;;2.43;1.20;;;;;;;10.69;77.87;100438.75;5071163;28;20220;-72
2022/05/28 00:29:13;;;;;;;0.00;0.00;;;;;;;10.71;77.39;100428.34;5070993;28;20648;-71
2022/05/28 00:31:38;;;;;;;3.70;1.50;;;;;;;10.71;77.74;100428.34;5071216;28;20202;-72
2022/05/28 00:34:04;;;;;;;0.80;0.80;;;;;;;10.72;78.01;100423.69;5071161;28;20224;-73
2022/05/28 00:36:30;;;;;;;1.00;0.60;;;;;;;10.74;77.93;100437.84;5071366;28;20182;-73
2022/05/28 00:38:55;;;;;;;1.53;1.07;;;;;;;10.72;77.82;100419.03;5071211;28;20182;-72
2022/05/28 00:41:20;;;;;;;2.20;1.20;;;;;;;10.72;78.51;100434.63;5071361;28;20221;-72
2022/05/28 00:43:46;;;;;;;1.80;0.73;;;;;;;10.71;78.32;100433.00;5070946;28;20190;-73
2022/05/28 00:46:24;;;;;;;28.67;3.37;;;;;;;10.71;78.18;100414.69;5071279;28;20174;-72
2022/05/28 00:48:56;;;;;;;2.80;0.30;;;;;;;10.73;78.30;100417.09;5071120;28;20189;-72
2022/05/28 00:51:27;;;;;;;0.83;0.60;;;;;;;10.73;78.20;100423.38;5070976;28;20549;-72
2022/05/28 00:53:56;;;;;;;4.13;0.70;;;;;;;10.73;78.25;100428.84;5070898;28;20202;-72
2022/05/28 00:56:22;;;;;;;1.70;0.77;;;;;;;10.74;78.45;100416.00;5071244;28;20189;-72
2022/05/28 00:58:49;;;;;;;1.60;0.60;;;;;;;10.72;78.51;100413.56;5070939;28;20178;-73
2022/05/28 01:01:15;;;;;;;0.47;0.47;;;;;;;10.74;78.37;100410.53;5071024;28;20231;-72
2022/05/28 01:04:02;;;;;;;0.67;0.47;;;;;;;10.73;78.39;100412.44;5071054;28;20171;-74
2022/05/28 01:06:42;;;;;;;0.40;0.40;;;;;;;10.69;78.85;100408.72;5071458;28;20163;-72
2022/05/28 01:09:20;;;;;;;2.30;0.67;;;;;;;10.68;78.67;100414.50;5071062;28;20162;-72
2022/05/28 01:11:55;;;;;;;0.37;0.30;;;;;;;10.66;79.31;100401.13;5070876;28;20678;-73
2022/05/28 01:14:29;;;;;;;1.23;0.60;;;;;;;10.60;82.62;100410.59;5071060;28;20244;-74
2022/05/28 01:17:00;;;;;;;7.27;2.00;;;;;;;10.35;84.70;100387.47;5070725;28;20150;-74
2022/05/28 01:19:28;;;;;;;0.20;0.20;;;;;;;10.24;85.88;100396.19;5070669;28;20162;-72
2022/05/28 01:22:04;;;;;;;10.33;2.10;;;;;;;10.18;85.62;100389.22;5070918;28;20167;-73
2022/05/28 01:24:53;;;;;;;0.10;0.10;;;;;;;10.19;86.49;100399.03;5071052;28;20173;-72
2022/05/28 01:27:26;;;;;;;1.40;0.47;;;;;;;10.16;86.74;100384.09;5070727;28;20260;-72
2022/05/28 01:29:56;;;;;;;0.10;0.10;;;;;;;10.19;86.71;100390.84;5070906;28;20155;-72
2022/05/28 01:32:26;;;;;;;0.50;0.43;;;;;;;10.20;86.68;100396.00;5071773;28;20273;-72
2022/05/28 01:34:53;;;;;;;1.33;0.80;;;;;;;10.24;86.58;100393.47;5074712;28;20167;-72
2022/05/28 01:37:21;;;;;;;2.03;1.93;;;;;;;10.26;85.99;100381.13;5074507;28;20695;-73
2022/05/28 01:39:49;;;;;;;0.97;0.27;;;;;;;10.25;87.01;100384.97;5074463;28;20220;-72
2022/05/28 01:42:16;;;;;;;1.67;1.57;;;;;;;10.25;86.51;100367.78;5071554;28;20174;-74
2022/05/28 01:44:45;;;;;;;3.60;0.40;;;;;;;10.29;86.23;100387.91;5073656;28;20186;-73
2022/05/28 01:47:14;;;;;;;4.63;0.60;;;;;;;10.29;86.82;100379.72;5074283;28;20178;-73
2022/05/28 01:49:40;;;;;;;1.80;0.60;;;;;;;10.27;85.46;100371.00;5074247;28;20175;-73
2022/05/28 01:52:07;;;;;;;0.77;0.77;;;;;;;10.21;85.83;100366.75;5074307;28;20289;-75
2022/05/28 01:54:37;;;;;;;0.60;0.10;;;;;;;10.06;84.42;100376.13;5074283;28;20222;-73
2022/05/28 01:57:03;;;;;;;0.40;0.40;;;;;;;9.86;82.40;100388.34;5074445;28;20205;-73
2022/05/28 01:59:33;;;;;;;4.00;0.93;;;;;;;9.75;83.33;100386.94;5074078;28;20179;-73
2022/05/28 02:02:01;;;;;;;6.00;0.83;;;;;;;9.63;86.12;100382.03;5074260;28;20167;-73
2022/05/28 02:04:28;;;;;;;3.97;0.63;;;;;;;9.46;89.91;100388.13;5074104;28;20725;-74
2022/05/28 02:06:53;;;;;;;1.07;0.27;;;;;;;9.15;94.29;100379.75;5074452;28;20248;-74
2022/05/28 02:09:25;;;;;;;0.37;0.20;;;;;;;8.97;98.04;100374.41;5073905;28;20610;-72
2022/05/28 02:12:12;;;;;;;0.20;0.20;;;;;;;8.87;100.00;100373.50;5073650;28;20259;-73
2022/05/28 02:14:50;;;;;;;0.03;0.03;;;;;;;8.78;100.00;100386.19;5073810;28;20173;-73
2022/05/28 02:17:24;;;;;;;0.00;0.00;;;;;;;8.74;100.00;100368.03;5073802;28;20228;-72
2022/05/28 02:19:58;;;;;;;0.00;0.00;;;;;;;8.70;100.00;100372.47;5076340;28;20499;-72
2022/05/28 02:22:43;;;;;;;0.40;0.20;;;;;;;8.68;100.00;100374.66;5076632;28;20194;-72
2022/05/28 02:25:35;;;;;;;0.00;0.00;;;;;;;8.69;100.00;100377.13;5074403;28;20194;-73
2022/05/28 02:28:03;;;;;;;0.00;0.00;;;;;;;8.68;100.00;100385.56;5073235;28;20190;-73
2022/05/28 02:30:30;;;;;;;0.00;0.00;;;;;;;8.62;100.00;100387.56;5073957;28;20751;-72
2022/05/28 02:33:06;;;;;;;0.00;0.00;;;;;;;8.60;100.00;100377.00;5073413;28;20704;-72
2022/05/28 02:35:32;;;;;;;0.17;0.17;;;;;;;8.61;100.00;100386.78;5073785;28;20281;-72
2022/05/28 02:37:57;;;;;;;0.00;0.00;;;;;;;8.62;100.00;100376.69;5073593;28;20666;-72
2022/05/28 02:40:23;;;;;;;0.10;0.10;;;;;;;8.61;100.00;100377.78;5073946;28;20185;-73
2022/05/28 02:42:48;;;;;;;0.73;0.30;;;;;;;8.59;100.00;100366.41;5073598;28;20248;-72
2022/05/28 02:45:14;;;;;;;2.53;0.93;;;;;;;8.61;100.00;100370.44;5072354;28;20218;-72
2022/05/28 02:47:40;;;;;;;0.00;0.00;;;;;;;8.63;100.00;100367.41;5073345;28;20263;-72
2022/05/28 02:50:06;;;;;;;1.53;0.87;;;;;;;8.63;100.00;100368.22;5069928;28;20208;-72
2022/05/28 02:52:31;;;;;;;0.10;0.10;;;;;;;8.69;100.00;100379.03;5072789;28;20206;-72
2022/05/28 02:54:56;;;;;;;0.20;0.20;;;;;;;8.67;100.00;100373.06;5073221;28;20275;-74
2022/05/28 02:57:22;;;;;;;0.63;0.33;;;;;;;8.68;100.00;100371.94;5072941;28;20174;-72
2022/05/28 02:59:47;;;;;;;1.17;1.17;;;;;;;8.64;100.00;100369.03;5073035;28;20179;-72
2022/05/28 03:02:12;;;;;;;0.20;0.20;;;;;;;8.66;100.00;100358.63;5073472;28;20248;-72
2022/05/28 03:04:38;;;;;;;0.83;0.50;;;;;;;8.65;100.00;100370.63;5073182;28;20190;-72
2022/05/28 03:07:03;;;;;;;0.07;0.07;;;;;;;8.63;100.00;100367.41;5073327;28;20175;-72
2022/05/28 03:09:29;;;;;;;3.23;0.57;;;;;;;8.62;100.00;100372.03;5073287;28;20170;-73
2022/05/28 03:11:54;;;;;;;11.33;1.67;;;;;;;8.63;100.00;100367.41;5072993;28;20630;-72
2022/05/28 03:14:19;;;;;;;0.93;0.63;;;;;;;8.63;100.00;100375.56;5072827;28;20630;-72
2022/05/28 03:16:45;;;;;;;0.80;0.80;;;;;;;8.67;100.00;100373.84;5073430;28;20245;-72
2022/05/28 03:19:11;;;;;;;0.40;0.40;;;;;;;8.71;100.00;100377.63;5072874;28;20562;-72
2022/05/28 03:21:37;;;;;;;0.87;0.63;;;;;;;8.78;100.00;100378.00;5072823;28;20175;-72
2022/05/28 03:24:03;;;;;;;16.67;2.70;;;;;;;8.83;100.00;100393.47;5072910;28;20602;-72
2022/05/28 03:26:30;;;;;;;0.20;0.20;;;;;;;8.86;100.00;100393.69;5072867;28;20185;-72
2022/05/28 03:28:56;;;;;;;1.40;0.27;;;;;;;8.90;100.00;100385.72;5072599;28;20163;-72
2022/05/28 03:31:23;;;;;;;2.77;1.50;;;;;;;8.93;99.67;100393.28;5072833;28;20277;-72
2022/05/28 03:33:50;;;;;;;0.43;0.33;;;;;;;8.94;99.29;100397.59;5072992;28;20243;-71
2022/05/28 03:36:16;;;;;;;0.93;0.20;;;;;;;8.95;98.41;100402.75;5072518;28;20166;-72
2022/05/28 03:38:42;;;;;;;23.30;4.20;;;;;;;8.94;98.33;100405.78;5072716;28;20167;-72
2022/05/28 03:41:07;;;;;;;7.93;2.10;;;;;;;8.93;97.98;100406.88;5072565;28;20166;-72
2022/05/28 03:43:34;;;;;;;2.93;0.67;;;;;;;8.90;98.41;100399.31;5072178;28;20210;-72
2022/05/28 03:45:59;;;;;;;1.90;1.00;;;;;;;8.86;98.72;100403.78;5072688;28;20249;-72
2022/05/28 03:48:25;;;;;;;0.43;0.33;;;;;;;8.81;99.17;100404.66;5071864;28;20177;-73
2022/05/28 03:50:50;;;;;;;3.90;1.90;;;;;;;8.77;98.90;100400.91;5072239;28;20181;-72
2022/05/28 03:53:16;;;;;;;2.30;0.77;;;;;;;8.77;98.19;100409.09;5072247;28;20186;-72
2022/05/28 03:55:42;;;;;;;1.17;0.47;;;;;;;8.78;98.47;100402.53;5072133;28;20174;-72
2022/05/28 03:58:09;;;;;;;7.40;0.93;;;;;;;8.80;97.91;100403.03;5072336;28;20174;-72
2022/05/28 04:00:35;;;;;;;0.00;0.00;;;;;;;8.81;98.11;100406.56;5072110;28;20228;-72
2022/05/28 04:03:00;;;;;;;0.40;0.40;;;;;;;8.81;97.82;100417.47;5072364;28;20186;-72
2022/05/28 04:05:26;;;;;;;0.07;0.07;;;;;;;8.82;98.21;100410.91;5071989;28;20177;-72
2022/05/28 04:07:51;;;;;;;2.67;0.50;;;;;;;8.81;98.41;100415.53;5071740;28;20167;-72
2022/05/28 04:10:17;;;;;;;1.03;0.83;;;;;;;8.83;97.87;100410.63;5071564;28;20174;-72
2022/05/28 04:12:43;;;;;;;10.57;4.50;;;;;;;8.85;97.80;100416.59;5071532;28;20196;-72
2022/05/28 04:15:10;;;;;;;1.17;0.33;;;;;;;8.88;97.93;100420.63;5071901;28;20171;-72
2022/05/28 04:17:35;;;;;;;1.43;1.33;;;;;;;8.92;96.57;100427.06;5071653;28;20177;-73
2022/05/28 04:20:02;;;;;;;0.30;0.30;;;;;;;8.93;96.91;100431.41;5071801;28;20174;-73
2022/05/28 04:22:27;;;;;;;2.00;0.47;;;;;;;8.98;96.47;100434.06;5070080;28;20609;-72
2022/05/28 04:24:52;;;;;;;1.37;0.80;;;;;;;9.04;96.06;100440.22;5070998;28;20257;-72
2022/05/28 04:27:18;;;;;;;16.10;0.67;;;;;;;9.09;95.25;100435.47;5071663;28;20174;-72
2022/05/28 04:29:43;;;;;;;6.50;1.07;;;;;;;9.17;93.80;100433.97;5071476;28;20177;-72
2022/05/28 04:32:09;;;;;;;1.37;0.63;;;;;;;9.21;92.25;100435.78;5071036;28;20654;-72
2022/05/28 04:34:34;;;;;;;0.87;0.43;;;;;;;9.28;90.46;100459.94;5071175;28;20206;-72
2022/05/28 04:36:59;;;;;;;0.10;0.10;;;;;;;9.32;90.42;100439.13;5071067;28;20178;-73
2022/05/28 04:39:25;;;;;;;3.03;0.67;;;;;;;9.30;90.00;100446.81;5071348;28;20199;-72
2022/05/28 04:41:50;;;;;;;0.43;0.43;;;;;;;9.37;89.92;100440.94;5071416;28;20542;-72
2022/05/28 04:44:15;;;;;;;1.13;0.33;;;;;;;9.40;90.27;100438.44;5071192;28;20192;-72
2022/05/28 04:46:41;;;;;;;0.00;0.00;;;;;;;9.44;89.88;100441.34;5071357;28;20183;-73
2022/05/28 04:49:06;;;;;;;2.30;0.90;;;;;;;9.51;88.95;100439.81;5071288;28;20170;-72
2022/05/28 04:51:32;;;;;;;1.70;0.83;;;;;;;9.64;89.06;100459.19;5071105;28;20198;-72
2022/05/28 04:53:57;;;;;;;0.00;0.00;;;;;;;9.68;88.84;100446.56;5071590;28;20586;-73
2022/05/28 04:56:23;;;;;;;1.40;0.43;;;;;;;9.69;89.59;100450.91;5071543;28;20511;-72
2022/05/28 04:58:48;;;;;;;0.00;0.00;;;;;;;9.66;89.33;100451.53;5070832;28;20634;-72
2022/05/28 05:01:17;;;;;;;0.77;0.73;;;;;;;9.65;89.78;100449.91;5070944;28;20263;-72
2022/05/28 05:03:42;;;;;;;3.07;0.20;;;;;;;9.65;89.82;100455.38;5071321;28;20174;-72
2022/05/28 05:06:08;;;;;;;4.20;0.60;;;;;;;9.62;89.57;100450.53;5071105;28;20626;-72
2022/05/28 05:08:33;;;;;;;1.30;0.40;;;;;;;9.62;88.85;100455.97;5076662;28;20614;-72
2022/05/28 05:10:59;;;;;;;0.77;0.40;;;;;;;9.62;89.03;100453.25;5077465;28;20174;-72
2022/05/28 05:13:25;;;;;;;1.57;1.47;;;;;;;9.59;88.82;100442.97;5077510;28;20170;-72
2022/05/28 05:15:50;;;;;;;2.10;0.87;;;;;;;9.63;88.47;100454.88;5077466;28;20178;-73
2022/05/28 05:18:16;;;;;;;0.60;0.60;;;;;;;9.69;87.86;100453.63;5077223;28;20232;-72
2022/05/28 05:20:41;;;;;;;2.47;0.60;;;;;;;9.73;87.25;100460.91;5077662;28;20593;-75
2022/05/28 05:23:06;;;;;;;0.23;0.23;;;;;;;9.78;86.35;100460.00;5077472;28;20257;-72
2022/05/28 05:25:32;;;;;;;0.30;0.30;;;;;;;9.88;85.69;100461.72;5077484;28;20197;-72
2022/05/28 05:27:57;;;;;;;0.00;0.00;;;;;;;9.96;85.18;100467.22;5077417;28;20178;-72
2022/05/28 05:30:23;;;;;;;4.63;0.50;;;;;;;10.07;84.86;100465.91;5077630;28;20712;-72
2022/05/28 05:32:48;;;;;;;0.70;0.50;;;;;;;10.16;83.86;100482.38;5077604;28;20242;-73
2022/05/28 05:35:14;;;;;;;0.57;0.57;;;;;;;10.22;82.49;100480.34;5077509;28;20171;-72
2022/05/28 05:37:39;;;;;;;1.63;0.30;;;;;;;10.29;82.47;100472.56;5077366;28;20204;-73
2022/05/28 05:40:06;;;;;;;1.33;0.70;;;;;;;10.27;82.46;100477.50;5077843;28;20170;-72
2022/05/28 05:42:31;;;;;;;0.37;0.37;;;;;;;10.26;82.70;100481.34;5077543;28;20262;-72
2022/05/28 05:44:57;;;;;;;0.43;0.43;;;;;;;10.22;81.52;100474.88;5077336;28;20261;-72
2022/05/28 05:47:22;;;;;;;0.90;0.57;;;;;;;10.23;82.94;100481.97;5077078;28;20523;-73
2022/05/28 05:49:48;;;;;;;0.60;0.37;;;;;;;10.25;82.13;100477.81;5076989;28;20178;-73
2022/05/28 05:52:13;;;;;;;0.00;0.00;;;;;;;10.33;81.95;100484.47;5077479;28;20739;-72
2022/05/28 05:54:39;;;;;;;4.27;1.10;;;;;;;10.42;82.07;100472.50;5077501;28;20729;-72
2022/05/28 05:57:05;;;;;;;21.27;0.70;;;;;;;10.49;82.61;100484.91;5077380;28;20321;-73
2022/05/28 05:59:31;;;;;;;6.63;0.57;;;;;;;10.45;81.97;100492.13;5077285;28;20170;-72
2022/05/28 06:01:56;;;;;;;0.23;0.23;;;;;;;10.37;81.61;100474.53;5077393;28;20205;-72
2022/05/28 06:04:21;;;;;;;2.30;0.73;;;;;;;10.32;81.47;100482.84;5077273;28;20201;-72
2022/05/28 06:06:47;;;;;;;0.50;0.50;;;;;;;10.27;81.35;100482.94;5077345;28;20184;-72
2022/05/28 06:09:13;;;;;;;4.43;1.13;;;;;;;10.39;81.67;100484.03;5077078;28;20182;-72
2022/05/28 06:11:38;;;;;;;16.70;1.40;;;;;;;10.42;81.29;100493.56;5077133;28;20578;-73
2022/05/28 06:14:04;;;;;;;4.40;0.30;;;;;;;10.43;81.69;100493.25;5077213;28;20227;-72
2022/05/28 06:16:30;;;;;;;9.73;0.57;;;;;;;10.32;81.23;100491.06;5077267;28;20171;-73
2022/05/28 06:18:55;;;;;;;1.80;1.70;;;;;;;10.33;82.46;100489.94;5074321;28;20273;-73
2022/05/28 06:21:21;;;;;;;8.23;1.10;;;;;;;10.28;82.09;100490.06;5074152;28;20262;-72
2022/05/28 06:23:46;;;;;;;2.90;0.33;;;;;;;10.37;83.19;100490.91;5073930;28;20181;-72
2022/05/28 06:26:12;;;;;;;0.10;0.10;;;;;;;10.54;82.70;100503.91;5073900;28;20186;-72
2022/05/28 06:28:37;;;;;;;0.73;0.73;;;;;;;10.70;82.69;100499.69;5073768;28;20178;-72
2022/05/28 06:31:05;;;;;;;0.67;0.50;;;;;;;10.65;81.91;100491.63;5073579;28;20371;-72
2022/05/28 06:33:31;;;;;;;2.40;0.80;;;;;;;10.64;82.49;100512.69;5073486;28;20179;-73
2022/05/28 06:35:58;;;;;;;0.77;0.30;;;;;;;10.62;81.94;100498.53;5074011;28;20177;-73
2022/05/28 06:38:24;;;;;;;1.40;1.40;;;;;;;10.70;81.13;100500.53;5072961;28;20202;-74
2022/05/28 06:40:50;;;;;;;23.97;0.87;;;;;;;10.87;80.84;100507.22;5073504;28;20543;-74
2022/05/28 06:43:16;;;;;;;1.07;0.27;;;;;;;10.89;80.35;100502.25;5073062;28;20656;-72
2022/05/28 06:45:41;;;;;;;7.07;2.23;;;;;;;10.66;79.50;100510.44;5073704;28;20175;-73
2022/05/28 06:48:07;;;;;;;1.43;0.83;;;;;;;10.43;79.56;100504.16;5073228;28;20253;-72
2022/05/28 06:53:17;;;;;;;18.33;1.20;;;;;;;10.40;80.78;100510.22;5072951;28;20649;-72
2022/05/28 06:55:42;;;;;;;0.30;0.30;;;;;;;10.40;80.70;100506.69;5072688;28;20175;-72
2022/05/28 06:58:08;;;;;;;6.77;0.60;;;;;;;10.45;80.41;100527.63;5072667;28;20320;-72
2022/05/28 07:00:35;;;;;;;0.37;0.37;;;;;;;10.48;80.51;100513.34;5073733;28;20232;-73
2022/05/28 07:03:01;;;;;;;2.97;1.17;;;;;;;10.56;80.46;100516.16;5072855;28;20214;-75
2022/05/28 07:05:28;;;;;;;2.70;0.87;;;;;;;10.57;80.01;100528.69;5070746;28;21348;-73
2022/05/28 07:07:54;;;;;;;1.40;0.70;;;;;;;10.55;79.54;100500.88;5071606;28;20174;-73
2022/05/28 07:10:19;;;;;;;0.20;0.20;;;;;;;10.58;80.11;100529.50;5073047;28;20236;-72
2022/05/28 07:12:45;;;;;;;0.47;0.47;;;;;;;10.68;80.53;100527.31;5072812;28;20198;-73
2022/05/28 07:15:13;;;;;;;0.97;0.97;;;;;;;10.85;79.32;100526.66;5072960;28;20206;-73
2022/05/28 07:17:39;;;;;;;1.00;0.50;;;;;;;10.94;78.12;100532.97;5072758;28;20201;-72
2022/05/28 07:20:04;;;;;;;0.30;0.20;;;;;;;10.98;78.00;100530.44;5071769;28;20175;-72
2022/05/28 07:22:30;;;;;;;3.03;0.30;;;;;;;10.93;76.68;100536.03;5072819;28;20237;-73
2022/05/28 07:24:55;;;;;;;0.53;0.53;;;;;;;10.89;77.15;100529.56;5072606;28;20170;-73
2022/05/28 07:27:21;;;;;;;3.13;1.70;;;;;;;10.86;77.73;100527.47;5072610;28;20170;-72
2022/05/28 07:29:46;;;;;;;0.20;0.17;;;;;;;10.81;77.21;100533.03;5071826;28;20232;-73
2022/05/28 07:32:11;;;;;;;2.60;2.40;;;;;;;10.73;76.84;100521.75;5072453;28;20622;-73
2022/05/28 07:34:37;;;;;;;5.10;0.87;;;;;;;10.84;78.14;100526.94;5072140;28;20175;-72
2022/05/28 07:37:02;;;;;;;0.30;0.30;;;;;;;10.94;77.98;100535.72;5072496;28;20163;-72
2022/05/28 07:39:27;;;;;;;0.10;0.10;;;;;;;10.92;77.18;100534.41;5072123;28;20175;-74
2022/05/28 07:41:53;;;;;;;4.23;0.50;;;;;;;10.90;77.11;100526.53;5072654;28;20167;-72
2022/05/28 07:44:19;;;;;;;0.60;0.33;;;;;;;10.84;77.22;100519.56;5071855;28;20182;-72
2022/05/28 07:46:44;;;;;;;8.80;0.87;;;;;;;10.76;77.32;100525.78;5072248;28;20232;-72
2022/05/28 07:49:10;;;;;;;1.50;1.50;;;;;;;10.91;77.03;100536.34;5072142;28;20174;-73
2022/05/28 07:51:37;;;;;;;0.10;0.10;;;;;;;11.27;76.95;100528.03;5072037;28;20964;-73
2022/05/28 07:54:05;;;;;;;0.00;0.00;;;;;;;11.53;75.55;100538.28;5071838;28;20626;-74
2022/05/28 07:56:30;;;;;;;0.00;0.00;;;;;;;11.81;75.56;100534.25;5072060;28;20178;-72
2022/05/28 07:58:57;;;;;;;0.60;0.43;;;;;;;12.12;74.25;100525.13;5072055;28;20171;-73
2022/05/28 08:01:29;;;;;;;6.70;0.77;;;;;;;11.95;72.07;100525.91;5072002;28;20249;-73
2022/05/28 08:04:00;;;;;;;3.93;1.50;;;;;;;11.88;73.09;100518.19;5071997;28;20266;-72
2022/05/28 08:06:26;;;;;;;1.37;1.27;;;;;;;11.81;73.45;100517.81;5072083;28;20159;-73
2022/05/28 08:08:52;;;;;;;2.73;1.43;;;;;;;11.78;72.70;100528.56;5071731;28;20266;-73
2022/05/28 08:11:18;;;;;;;3.77;0.40;;;;;;;11.65;70.76;100510.34;5071886;28;20599;-72
2022/05/28 08:13:43;;;;;;;0.87;0.50;;;;;;;11.56;70.34;100523.97;5071805;28;20262;-72
2022/05/28 08:16:09;;;;;;;0.47;0.43;;;;;;;11.66;70.73;100520.16;5071631;28;20170;-73
2022/05/28 08:18:37;;;;;;;0.90;0.37;;;;;;;11.65;71.23;100522.09;5071292;28;20182;-73
2022/05/28 08:23:47;;;;;;;0.27;0.27;;;;;;;11.33;74.31;100535.00;5072159;28;20182;-73
2022/05/28 08:26:14;;;;;;;0.20;0.20;;;;;;;11.35;73.43;100540.16;5072207;28;20179;-72
2022/05/28 08:28:41;;;;;;;3.10;0.67;;;;;;;11.38;72.40;100536.78;5071420;28;20178;-72
2022/05/28 08:31:07;;;;;;;0.00;0.00;;;;;;;11.63;73.54;100543.50;5071609;28;20224;-72
2022/05/28 08:33:33;;;;;;;4.70;0.40;;;;;;;11.59;72.47;100534.31;5071590;28;20229;-72
2022/05/28 08:35:59;;;;;;;3.20;0.60;;;;;;;11.61;73.36;100543.81;5071287;28;20698;-76
2022/05/28 08:38:25;;;;;;;3.10;0.83;;;;;;;11.73;72.45;100543.22;5071453;28;20467;-72
2022/05/28 08:40:56;;;;;;;3.00;0.77;;;;;;;11.82;73.50;100529.56;5071365;28;20189;-72
2022/05/28 08:43:23;;;;;;;0.57;0.57;;;;;;;12.18;73.31;100543.06;5070432;28;20189;-72
2022/05/28 08:45:50;;;;;;;0.53;0.53;;;;;;;12.16;70.52;100548.03;5071161;28;20194;-73
2022/05/28 08:48:22;;;;;;;20.07;0.80;;;;;;;12.05;69.80;100544.78;5071076;28;20171;-75
2022/05/28 08:51:09;;;;;;;1.03;0.50;;;;;;;12.35;69.15;100553.22;5071326;28;20163;-73
2022/05/28 08:53:43;;;;;;;1.40;1.30;;;;;;;12.23;67.02;100555.78;5071179;28;20171;-75
2022/05/28 08:56:13;;;;;;;0.13;0.13;;;;;;;12.19;68.64;100555.63;5071252;28;20254;-73
2022/05/28 08:58:40;;;;;;;1.23;0.40;;;;;;;12.23;68.59;100548.38;5070864;28;20244;-73
2022/05/28 09:01:18;;;;;;;0.40;0.30;;;;;;;12.20;69.09;100557.22;5071012;28;20653;-77
2022/05/28 09:03:51;;;;;;;1.97;0.97;;;;;;;12.19;68.64;100555.63;5070975;28;20269;-74
2022/05/28 09:06:23;;;;;;;0.50;0.50;;;;;;;12.09;68.29;100547.69;5070868;28;20185;-72
2022/05/28 09:08:54;;;;;;;0.83;0.50;;;;;;;12.17;69.28;100550.47;5070584;28;20174;-72
2022/05/28 09:11:33;;;;;;;1.77;0.67;;;;;;;12.59;70.66;100541.81;5069528;28;20175;-77
2022/05/28 09:14:09;;;;;;;0.00;0.00;;;;;;;12.53;68.56;100560.31;5071042;28;20166;-77
2022/05/28 09:16:37;;;;;;;0.13;0.10;;;;;;;12.68;67.87;100550.81;5070971;28;20202;-77
2022/05/28 09:19:14;;;;;;;4.03;0.73;;;;;;;12.57;67.33;100555.00;5070781;28;20185;-73
2022/05/28 09:21:40;;;;;;;1.60;0.63;;;;;;;12.51;66.55;100548.88;5070921;28;20193;-72
2022/05/28 09:24:13;;;;;;;1.23;0.70;;;;;;;12.23;66.40;100545.63;5071262;28;20631;-74
2022/05/28 09:27:04;;;;;;;0.13;0.13;;;;;;;12.17;67.71;100550.47;5070919;28;20562;-74
2022/05/28 09:29:38;;;;;;;1.93;1.47;;;;;;;12.29;69.05;100549.81;5070877;28;20163;-73
2022/05/28 09:32:12;;;;;;;1.90;0.67;;;;;;;12.47;69.45;100551.47;5070555;28;20186;-73
2022/05/28 09:34:56;;;;;;;4.07;0.77;;;;;;;12.67;68.36;100543.72;5070884;28;20182;-73
2022/05/28 09:37:36;;;;;;;0.23;0.23;;;;;;;12.58;67.50;100556.59;5070549;28;20170;-73
2022/05/28 09:40:13;;;;;;;0.57;0.23;;;;;;;12.35;68.25;100548.56;5070777;28;20164;-73
2022/05/28 09:42:57;;;;;;;2.50;0.67;;;;;;;12.25;67.43;100550.78;5070850;28;20166;-74
2022/05/28 09:45:32;;;;;;;2.70;1.37;;;;;;;12.39;67.55;100537.75;5070497;28;20190;-73
2022/05/28 09:47:58;;;;;;;0.10;0.10;;;;;;;12.65;66.87;100535.03;5070052;28;20575;-73
2022/05/28 09:50:28;;;;;;;3.37;1.43;;;;;;;12.77;66.06;100524.22;5070296;28;20626;-73
2022/05/28 09:56:09;;;;;;;0.40;0.40;;;;;;;13.23;65.17;100530.94;5074884;28;20182;-75
2022/05/28 09:58:38;;;;;;;0.97;0.50;;;;;;;13.53;65.38;100527.13;5073863;28;20242;-72
2022/05/28 10:01:19;;;;;;;0.97;0.73;;;;;;;13.30;64.63;100521.06;5074035;28;20170;-73
2022/05/28 10:06:31;;;;;;;0.20;0.20;;;;;;;13.27;65.09;100527.19;5073409;28;20603;-73
2022/05/28 10:08:57;;;;;;;1.17;1.00;;;;;;;13.22;66.48;100521.91;5073129;28;20171;-72
2022/05/28 10:11:23;;;;;;;1.30;0.57;;;;;;;13.58;67.84;100529.69;5073605;28;20218;-74
2022/05/28 10:13:54;;;;;;;0.10;0.10;;;;;;;13.81;67.28;100519.25;5073572;28;20707;-73
2022/05/28 10:16:31;;;;;;;1.07;0.97;;;;;;;13.56;67.68;100526.47;5073620;28;20162;-73
2022/05/28 10:18:58;;;;;;;0.97;0.57;;;;;;;13.56;66.80;100520.16;5073348;28;20166;-73
2022/05/28 10:21:33;;;;;;;0.77;0.47;;;;;;;13.57;65.91;100514.34;5073325;28;20171;-73
2022/05/28 10:24:05;;;;;;;0.17;0.17;;;;;;;13.40;67.14;100511.66;5073208;28;20270;-73
2022/05/28 10:26:38;;;;;;;0.93;0.57;;;;;;;13.06;68.96;100512.56;5073172;28;20179;-72
2022/05/28 10:29:06;;;;;;;3.60;0.30;;;;;;;12.85;70.74;100536.28;5073339;28;20361;-65
2022/05/28 10:31:40;;;;;;;0.00;0.00;;;;;;;12.74;75.92;100530.34;5071975;28;20681;-73
2022/05/28 10:34:07;;;;;;;0.00;0.00;;;;;;;12.33;80.45;100555.47;5055848;28;20240;-73
2022/05/28 10:36:36;;;;;;;0.00;0.00;;;;;;;11.87;87.74;100559.56;5065151;28;20182;-76
2022/05/28 10:39:14;;;;;;;0.00;0.00;;;;;;;11.38;90.58;100557.84;5073409;28;20679;-74
2022/05/28 10:41:42;;;;;;;0.50;0.50;;;;;;;11.14;92.48;100553.56;5073404;28;20634;-76
2022/05/28 10:44:09;;;;;;;0.00;0.00;;;;;;;11.05;92.69;100544.47;5073241;28;20182;-75
2022/05/28 10:46:37;;;;;;;0.07;0.00;;;;;;;11.26;95.96;100531.06;5073120;28;20177;-73
2022/05/28 10:49:33;;;;;;;0.03;0.03;;;;;;;11.20;95.10;100524.94;5073434;28;20174;-73
2022/05/28 10:52:19;;;;;;;0.83;0.53;;;;;;;11.31;96.04;100526.28;5069125;28;20209;-73
2022/05/28 10:54:57;;;;;;;0.00;0.00;;;;;;;11.38;94.76;100525.03;5063974;28;20626;-72
2022/05/28 10:57:38;;;;;;;13.83;1.90;;;;;;;11.50;95.75;100523.31;5072837;28;20163;-73
2022/05/28 11:00:12;;;;;;;1.30;0.70;;;;;;;11.57;94.66;100517.38;5073091;28;20220;-73
2022/05/28 11:03:16;;;;;;;0.00;0.00;;;;;;;11.91;96.15;100523.00;5073006;28;20171;-73
2022/05/28 11:06:20;;;;;;;7.20;0.93;;;;;;;12.00;85.89;100520.28;5041379;28;20193;-73
2022/05/28 11:09:05;;;;;;;5.13;0.97;;;;;;;12.39;81.29;100535.00;5072802;28;20172;-74
2022/05/28 11:11:53;;;;;;;0.00;0.00;;;;;;;12.97;81.74;100520.78;5072941;28;20228;-73
2022/05/28 11:14:27;;;;;;;0.87;0.53;;;;;;;13.22;76.63;100505.44;5069863;28;20191;-73
2022/05/28 11:17:32;;;;;;;0.30;0.30;;;;;;;13.63;76.55;100501.25;5065793;28;20861;-73
2022/05/28 11:20:38;;;;;;;3.03;1.73;;;;;;;13.74;71.06;100510.69;5066324;28;20178;-72
2022/05/28 11:23:21;;;;;;;2.07;0.10;;;;;;;13.86;70.74;100502.56;5008251;28;20326;-73
2022/05/28 11:26:03;;;;;;;4.80;0.30;;;;;;;13.65;71.57;100508.03;5062361;28;20225;-74
2022/05/28 11:28:41;;;;;;;0.00;0.00;;;;;;;13.38;72.04;100503.78;5050875;28;20195;-73
2022/05/28 11:31:22;;;;;;;0.00;0.00;;;;;;;13.12;72.72;100500.25;5051754;28;20626;-73
2022/05/28 11:33:51;;;;;;;0.13;0.13;;;;;;;12.82;76.09;100511.13;5051757;28;20189;-73
2022/05/28 11:36:28;;;;;;;1.00;1.00;;;;;;;12.51;80.28;100518.75;5064159;28;20566;-73
2022/05/28 11:39:02;;;;;;;1.97;0.20;;;;;;;11.84;87.96;100505.44;5071484;28;20185;-74
2022/05/28 11:41:34;;;;;;;7.23;0.67;;;;;;;11.99;88.94;100495.97;5071853;28;20686;-73
2022/05/28 11:44:23;;;;;;;0.00;0.00;;;;;;;12.32;88.97;100491.66;5071579;28;20269;-74
2022/05/28 11:46:57;;;;;;;0.00;0.00;;;;;;;12.54;90.68;100487.94;5071609;28;20181;-73